Fusonia, Kentucky
Current Conditions -  °F | °C
As of 7:15 PM on Friday 21 Nov 2014 (Local Time) from KI35 Reporting Station
Clear Clear  
Wind Chill: 34°   Ceiling: Unl
Heat Index: 34°   Visibility: 10mi
Dew Point: 12°   Wind: 3mph
Humidity: 41%   Direction: 70°ENE
Pressure: 30.41"   Gusts: NA
Location:  37.1364°N, 83.1633°W
Report Text: KI35 220015Z AUTO 07003KT 10SM CLR 01/M11 A3041 RMK AO1
Loading
Personal Weather Stations






























Interactive Weather Map New forecast layout! Learn more

10-Day Weather Forecast

Advertisements
Track Severe Weather on mobile